createdAt,value
2022-10-18T00:00:18.487Z,18.10
2022-10-18T00:02:45.183Z,18.10
2022-10-18T00:05:12.239Z,18.00
2022-10-18T00:07:38.963Z,18.00
2022-10-18T00:10:06.648Z,18.00
2022-10-18T00:12:37.660Z,18.00
2022-10-18T00:15:06.154Z,18.00
2022-10-18T00:17:35.721Z,17.90
2022-10-18T00:20:02.536Z,17.90
2022-10-18T00:22:29.499Z,17.90
2022-10-18T00:24:56.659Z,17.90
2022-10-18T00:27:23.467Z,17.90
2022-10-18T00:29:53.120Z,17.90
2022-10-18T00:32:19.808Z,17.80
2022-10-18T00:34:46.680Z,17.80
2022-10-18T00:37:13.395Z,17.80
2022-10-18T00:39:40.224Z,17.80
2022-10-18T00:42:06.921Z,17.80
2022-10-18T00:44:33.568Z,17.70
2022-10-18T00:47:04.937Z,17.70
2022-10-18T00:49:35.371Z,17.60
2022-10-18T00:52:18.956Z,17.60
2022-10-18T00:54:48.387Z,17.60
2022-10-18T00:57:15.432Z,17.50
2022-10-18T00:59:43.177Z,17.50
2022-10-18T01:02:10.796Z,17.60
2022-10-18T01:04:37.538Z,17.50
2022-10-18T01:07:07.297Z,17.50
2022-10-18T01:09:50.065Z,17.40
2022-10-18T01:12:32.988Z,17.40
2022-10-18T01:15:06.429Z,17.40
2022-10-18T01:17:49.677Z,17.40
2022-10-18T01:20:37.083Z,17.40
2022-10-18T01:23:19.300Z,17.50
2022-10-18T01:26:07.471Z,17.60
2022-10-18T01:29:02.438Z,17.50
2022-10-18T01:31:37.703Z,17.50
2022-10-18T01:34:07.803Z,17.50
2022-10-18T01:36:38.064Z,17.50
2022-10-18T01:39:08.751Z,17.50
2022-10-18T01:41:38.469Z,17.50
2022-10-18T01:44:08.597Z,17.50
2022-10-18T01:46:37.366Z,17.50
2022-10-18T01:49:04.707Z,17.50
2022-10-18T01:51:32.890Z,17.60
2022-10-18T01:54:00.055Z,17.60
2022-10-18T01:56:37.796Z,17.70
2022-10-18T01:59:10.388Z,17.80
2022-10-18T02:01:51.580Z,17.70
2022-10-18T02:04:30.312Z,17.70
2022-10-18T02:07:32.360Z,17.60
2022-10-18T02:12:48.480Z,17.50
2022-10-18T02:15:21.157Z,17.50
2022-10-18T02:17:47.815Z,17.40
2022-10-18T02:20:21.045Z,17.40
2022-10-18T02:22:50.052Z,17.30
2022-10-18T02:25:22.774Z,17.30
2022-10-18T02:27:49.800Z,17.30
2022-10-18T02:30:17.467Z,17.30
2022-10-18T02:32:58.948Z,17.30
2022-10-18T02:35:49.209Z,17.20
2022-10-18T02:38:19.120Z,17.20
2022-10-18T02:40:45.786Z,17.20
2022-10-18T02:43:14.314Z,17.20
2022-10-18T02:45:41.372Z,17.20
2022-10-18T02:48:08.079Z,17.20
2022-10-18T02:50:34.857Z,17.20
2022-10-18T02:53:01.614Z,17.10
2022-10-18T02:57:56.121Z,17.10
2022-10-18T03:00:22.752Z,17.10
2022-10-18T03:02:49.451Z,17.10
2022-10-18T03:05:16.365Z,17.00
2022-10-18T03:07:43.016Z,17.00
2022-10-18T03:10:09.912Z,17.00
2022-10-18T03:12:36.630Z,17.00
2022-10-18T03:15:03.741Z,17.00
2022-10-18T03:17:30.624Z,17.00
2022-10-18T03:19:57.896Z,17.00
2022-10-18T03:22:25.323Z,17.10
2022-10-18T03:24:52.088Z,17.00
2022-10-18T03:27:18.797Z,17.00
2022-10-18T03:29:45.419Z,17.00
2022-10-18T03:32:12.067Z,16.90
2022-10-18T03:34:38.764Z,17.00
2022-10-18T03:37:05.595Z,17.00
2022-10-18T03:39:32.325Z,17.00
2022-10-18T03:41:59.284Z,16.90
2022-10-18T03:44:25.931Z,16.90
2022-10-18T03:46:52.597Z,16.80
2022-10-18T03:49:19.303Z,16.80
2022-10-18T03:51:45.996Z,16.80
2022-10-18T03:54:12.694Z,16.80
2022-10-18T03:56:39.689Z,16.80
2022-10-18T03:59:06.352Z,16.80
2022-10-18T04:01:33.051Z,16.80
2022-10-18T04:04:00.022Z,16.80
2022-10-18T04:06:26.771Z,16.80
2022-10-18T04:08:55.513Z,16.80
2022-10-18T04:11:22.252Z,16.70
2022-10-18T04:13:50.234Z,16.70
2022-10-18T04:16:16.962Z,16.70
2022-10-18T04:18:43.714Z,16.70
2022-10-18T04:21:10.411Z,16.70
2022-10-18T04:23:38.838Z,16.70
2022-10-18T04:26:06.445Z,16.60
2022-10-18T04:28:33.925Z,16.70
2022-10-18T04:31:00.834Z,16.60
2022-10-18T04:33:27.781Z,16.70
2022-10-18T04:35:54.463Z,16.60
2022-10-18T04:38:21.227Z,16.70
2022-10-18T04:40:47.956Z,16.60
2022-10-18T04:43:14.805Z,16.60
2022-10-18T04:45:41.827Z,16.60
2022-10-18T04:48:09.161Z,16.60
2022-10-18T04:50:35.942Z,16.50
2022-10-18T04:53:02.725Z,16.50
2022-10-18T04:55:29.506Z,16.50
2022-10-18T04:57:56.165Z,16.50
2022-10-18T05:00:22.860Z,16.50
2022-10-18T05:02:49.763Z,16.50
2022-10-18T05:05:16.576Z,16.60
2022-10-18T05:07:43.216Z,16.50
2022-10-18T05:10:09.995Z,16.50
2022-10-18T05:12:36.722Z,16.60
2022-10-18T05:15:03.755Z,16.50
2022-10-18T05:17:30.526Z,16.50
2022-10-18T05:19:57.169Z,16.50
2022-10-18T05:22:23.919Z,16.50
2022-10-18T05:24:50.718Z,16.60
2022-10-18T05:27:17.420Z,16.60
2022-10-18T05:29:44.235Z,16.60
2022-10-18T05:32:11.026Z,16.60
2022-10-18T05:34:37.776Z,16.60
2022-10-18T05:37:04.688Z,16.60
2022-10-18T05:39:31.400Z,16.50
2022-10-18T05:41:58.483Z,16.60
2022-10-18T05:44:25.247Z,16.60
2022-10-18T05:46:52.134Z,16.60
2022-10-18T05:49:19.099Z,16.60
2022-10-18T05:51:45.766Z,16.60
2022-10-18T05:54:12.647Z,16.70
2022-10-18T05:59:12.208Z,16.70
2022-10-18T06:01:40.556Z,16.70
2022-10-18T06:04:08.254Z,16.70
2022-10-18T06:06:34.965Z,16.70
2022-10-18T06:09:03.502Z,16.70
2022-10-18T06:11:31.302Z,16.60
2022-10-18T06:13:58.406Z,16.70
2022-10-18T06:16:32.004Z,16.70
2022-10-18T06:19:00.032Z,16.80
2022-10-18T06:21:27.517Z,16.70
2022-10-18T06:23:56.999Z,16.70
2022-10-18T06:26:24.556Z,16.70
2022-10-18T06:28:51.424Z,16.70
2022-10-18T06:31:18.552Z,16.80
2022-10-18T06:33:46.052Z,16.80
2022-10-18T06:36:17.861Z,16.90
2022-10-18T06:38:44.877Z,17.00
2022-10-18T06:41:11.908Z,17.00
2022-10-18T06:43:38.829Z,17.00
2022-10-18T06:46:07.671Z,17.10
2022-10-18T06:48:36.317Z,17.10
2022-10-18T06:51:06.140Z,17.20
2022-10-18T06:53:40.802Z,17.30
2022-10-18T06:56:13.181Z,17.30
2022-10-18T06:58:40.475Z,17.30
2022-10-18T07:01:10.036Z,17.40
2022-10-18T07:03:37.382Z,17.50
2022-10-18T07:06:06.840Z,17.50
2022-10-18T07:08:33.689Z,17.50
2022-10-18T07:11:00.884Z,17.40
2022-10-18T07:13:33.026Z,17.20
2022-10-18T07:16:05.938Z,17.30
2022-10-18T07:18:37.437Z,17.50
2022-10-18T07:21:09.617Z,17.70
2022-10-18T07:23:38.633Z,17.80
2022-10-18T07:26:14.108Z,17.80
2022-10-18T07:28:41.341Z,17.70
2022-10-18T07:31:09.854Z,17.70
2022-10-18T07:33:40.094Z,17.70
2022-10-18T07:36:09.015Z,17.80
2022-10-18T07:38:36.375Z,17.70
2022-10-18T07:41:06.470Z,17.80
2022-10-18T07:43:33.869Z,17.70
2022-10-18T07:46:03.146Z,17.80
2022-10-18T07:48:29.988Z,17.90
2022-10-18T07:51:01.494Z,17.90
2022-10-18T07:53:29.292Z,18.00
2022-10-18T07:56:02.308Z,18.20
2022-10-18T07:58:32.604Z,18.30
2022-10-18T08:01:04.214Z,18.30
2022-10-18T08:03:31.333Z,18.40
2022-10-18T08:05:58.460Z,18.50
2022-10-18T08:08:26.193Z,18.40
2022-10-18T08:10:53.288Z,18.50
2022-10-18T08:13:20.968Z,18.50
2022-10-18T08:15:47.873Z,18.60
2022-10-18T08:18:14.749Z,18.70
2022-10-18T08:20:45.841Z,18.70
2022-10-18T08:23:12.918Z,18.70
2022-10-18T08:25:39.836Z,18.80
2022-10-18T08:28:07.239Z,18.90
2022-10-18T08:30:35.708Z,19.00
2022-10-18T08:33:03.731Z,19.00
2022-10-18T08:35:31.762Z,19.10
2022-10-18T08:37:59.358Z,19.20
2022-10-18T08:40:27.580Z,19.30
2022-10-18T08:43:07.191Z,19.20
2022-10-18T08:45:42.340Z,19.30
2022-10-18T08:48:17.055Z,19.50
2022-10-18T08:50:43.900Z,19.60
2022-10-18T08:53:39.940Z,19.70
2022-10-18T08:56:21.646Z,19.80
2022-10-18T08:58:48.757Z,19.90
2022-10-18T09:01:30.337Z,20.00
2022-10-18T09:04:15.093Z,20.10
2022-10-18T09:07:09.439Z,20.10
2022-10-18T09:10:21.431Z,20.10
2022-10-18T09:12:48.084Z,20.20
2022-10-18T09:15:29.429Z,20.30
2022-10-18T09:18:02.120Z,20.40
2022-10-18T09:20:54.410Z,20.50
2022-10-18T09:23:49.367Z,20.50
2022-10-18T09:26:20.753Z,20.50
2022-10-18T09:29:13.337Z,20.70
2022-10-18T09:31:58.370Z,20.80
2022-10-18T09:34:31.267Z,20.90
2022-10-18T09:36:58.979Z,21.00
2022-10-18T09:39:35.338Z,21.10
2022-10-18T09:42:28.535Z,21.10
2022-10-18T09:45:06.336Z,21.20
2022-10-18T09:47:41.085Z,21.30
2022-10-18T09:50:24.489Z,21.40
2022-10-18T09:53:20.146Z,21.40
2022-10-18T09:56:02.836Z,21.60
2022-10-18T09:58:49.231Z,21.60
2022-10-18T10:01:31.729Z,21.70
2022-10-18T10:03:58.507Z,21.90
2022-10-18T10:06:34.626Z,22.00
2022-10-18T10:09:07.622Z,22.10
2022-10-18T10:11:40.385Z,22.30
2022-10-18T10:14:17.739Z,22.40
2022-10-18T10:17:03.273Z,22.50
2022-10-18T10:19:41.088Z,22.60
2022-10-18T10:22:12.126Z,22.80
2022-10-18T10:24:51.290Z,22.90
2022-10-18T10:27:34.323Z,23.00
2022-10-18T10:30:20.696Z,23.10
2022-10-18T10:32:49.412Z,23.10
2022-10-18T10:38:25.412Z,23.10
2022-10-18T10:40:52.641Z,23.20
2022-10-18T10:43:40.719Z,23.30
2022-10-18T10:46:13.917Z,23.50
2022-10-18T10:49:09.536Z,23.60
2022-10-18T10:51:43.767Z,23.90
2022-10-18T10:54:20.778Z,24.50
2022-10-18T10:57:12.737Z,25.20
2022-10-18T10:59:45.633Z,26.40
2022-10-18T11:02:15.382Z,27.90
2022-10-18T11:04:43.258Z,29.50
2022-10-18T11:07:09.916Z,30.70
2022-10-18T11:09:50.579Z,31.80
2022-10-18T11:12:22.856Z,32.80
2022-10-18T11:15:10.062Z,33.80
2022-10-18T11:17:46.314Z,35.70
2022-10-18T11:20:35.397Z,37.10
2022-10-18T11:23:15.840Z,38.10
2022-10-18T11:26:04.398Z,39.10
2022-10-18T11:28:48.790Z,39.80
2022-10-18T11:31:45.263Z,40.20
2022-10-18T11:34:22.417Z,40.70
2022-10-18T11:36:56.346Z,41.10
2022-10-18T11:39:29.087Z,41.50
2022-10-18T11:42:08.248Z,41.60
2022-10-18T11:44:45.582Z,41.60
2022-10-18T11:47:46.079Z,41.80
2022-10-18T11:50:38.139Z,41.90
2022-10-18T11:53:25.232Z,42.10
2022-10-18T11:56:03.967Z,42.40
2022-10-18T11:58:42.612Z,43.20
2022-10-18T12:01:28.621Z,43.10
2022-10-18T12:04:07.447Z,43.60
2022-10-18T12:06:38.673Z,43.90
2022-10-18T12:09:17.077Z,44.10
2022-10-18T12:11:55.795Z,44.30
2022-10-18T12:14:35.142Z,42.80
2022-10-18T12:17:40.210Z,42.10
2022-10-18T12:20:02.179Z,42.90
2022-10-18T12:22:38.908Z,42.60
2022-10-18T12:25:13.153Z,43.00
2022-10-18T12:27:55.010Z,43.40
2022-10-18T12:30:32.489Z,43.70
2022-10-18T12:33:27.121Z,43.90
2022-10-18T12:36:19.932Z,44.30
2022-10-18T12:38:52.390Z,44.30
2022-10-18T12:41:30.410Z,44.30
2022-10-18T12:44:00.125Z,44.30
2022-10-18T12:46:46.955Z,44.20
2022-10-18T12:49:17.140Z,44.30
2022-10-18T12:51:59.638Z,44.00
2022-10-18T12:54:38.371Z,44.00
2022-10-18T12:57:17.731Z,43.90
2022-10-18T12:59:44.440Z,43.70
2022-10-18T13:02:24.499Z,43.90
2022-10-18T13:04:51.386Z,43.90
2022-10-18T13:07:40.813Z,44.00
2022-10-18T13:10:10.425Z,44.00
2022-10-18T13:12:49.408Z,43.80
2022-10-18T13:15:34.156Z,43.80
2022-10-18T13:18:10.470Z,43.80
2022-10-18T13:20:40.331Z,43.80
2022-10-18T13:23:25.601Z,43.80
2022-10-18T13:26:09.746Z,44.10
2022-10-18T13:29:04.315Z,44.00
2022-10-18T13:31:37.538Z,43.60
2022-10-18T13:34:35.368Z,43.50
2022-10-18T13:37:18.440Z,43.60
2022-10-18T13:39:45.287Z,43.30
2022-10-18T13:42:15.040Z,43.10
2022-10-18T13:44:44.530Z,42.90
2022-10-18T13:47:31.896Z,42.30
2022-10-18T13:50:17.828Z,41.70
2022-10-18T13:53:14.695Z,41.60
2022-10-18T13:56:12.581Z,42.00
2022-10-18T13:59:14.428Z,40.70
2022-10-18T14:02:03.618Z,40.50
2022-10-18T14:05:23.693Z,39.90
2022-10-18T14:07:58.160Z,37.50
2022-10-18T14:11:01.910Z,35.20
2022-10-18T14:13:36.500Z,33.50
2022-10-18T14:16:26.341Z,32.00
2022-10-18T14:18:59.170Z,31.10
2022-10-18T14:21:34.903Z,30.60
2022-10-18T14:24:02.673Z,30.10
2022-10-18T14:26:29.549Z,29.70
2022-10-18T14:29:07.085Z,29.40
2022-10-18T14:31:35.080Z,28.90
2022-10-18T14:34:02.666Z,28.60
2022-10-18T14:36:40.808Z,28.40
2022-10-18T14:39:21.929Z,28.30
2022-10-18T14:41:59.135Z,28.30
2022-10-18T14:44:31.365Z,28.20
2022-10-18T14:47:20.001Z,28.20
2022-10-18T14:49:47.481Z,28.10
2022-10-18T14:52:18.269Z,28.10
2022-10-18T14:54:46.073Z,27.90
2022-10-18T14:57:39.086Z,27.80
2022-10-18T15:00:09.121Z,27.50
2022-10-18T15:02:37.484Z,27.60
2022-10-18T15:05:23.205Z,27.50
2022-10-18T15:07:50.758Z,27.20
2022-10-18T15:10:25.202Z,27.20
2022-10-18T15:13:09.433Z,27.20
2022-10-18T15:15:37.494Z,27.10
2022-10-18T15:18:06.475Z,27.10
2022-10-18T15:20:39.412Z,26.90
2022-10-18T15:23:31.213Z,26.70
2022-10-18T15:26:04.853Z,26.70
2022-10-18T15:28:37.715Z,26.60
2022-10-18T15:31:05.386Z,26.30
2022-10-18T15:33:34.653Z,26.30
2022-10-18T15:36:12.521Z,26.30
2022-10-18T15:38:39.339Z,26.20
2022-10-18T15:41:37.096Z,26.10
2022-10-18T15:44:25.296Z,26.20
2022-10-18T15:46:55.710Z,26.00
2022-10-18T15:49:43.980Z,26.00
2022-10-18T15:52:38.506Z,25.90
2022-10-18T15:55:30.880Z,25.80
2022-10-18T15:58:05.585Z,25.70
2022-10-18T16:00:32.401Z,25.60
2022-10-18T16:02:59.095Z,25.40
2022-10-18T16:05:26.034Z,25.40
2022-10-18T16:07:52.889Z,25.30
2022-10-18T16:10:19.685Z,25.20
2022-10-18T16:12:46.646Z,25.10
2022-10-18T16:15:13.467Z,25.00
2022-10-18T16:17:40.219Z,24.90
2022-10-18T16:20:17.853Z,24.70
2022-10-18T16:22:44.548Z,24.60
2022-10-18T16:25:11.221Z,24.40
2022-10-18T16:27:37.962Z,24.30
2022-10-18T16:30:18.416Z,24.20
2022-10-18T16:32:46.322Z,24.10
2022-10-18T16:35:13.456Z,24.00
2022-10-18T16:37:40.538Z,23.90
2022-10-18T16:40:37.638Z,23.80
2022-10-18T16:43:07.122Z,23.90
2022-10-18T16:45:33.884Z,24.00
2022-10-18T16:48:00.562Z,24.10
2022-10-18T16:50:30.858Z,23.90
2022-10-18T16:52:59.890Z,23.80
2022-10-18T16:55:26.617Z,23.70
2022-10-18T16:57:53.277Z,23.50
2022-10-18T17:00:22.978Z,23.40
2022-10-18T17:02:50.356Z,23.20
2022-10-18T17:05:18.324Z,23.20
2022-10-18T17:07:46.075Z,23.10
2022-10-18T17:10:18.867Z,23.00
2022-10-18T17:12:45.779Z,22.90
2022-10-18T17:15:13.131Z,22.80
2022-10-18T17:17:40.230Z,22.70
2022-10-18T17:20:09.144Z,22.60
2022-10-18T17:22:35.915Z,22.60
2022-10-18T17:25:03.451Z,22.50
2022-10-18T17:27:30.323Z,22.50
2022-10-18T17:29:57.555Z,22.40
2022-10-18T17:32:24.327Z,22.40
2022-10-18T17:34:51.204Z,22.20
2022-10-18T17:37:18.049Z,22.10
2022-10-18T17:39:45.048Z,22.00
2022-10-18T17:42:11.739Z,21.90
2022-10-18T17:44:38.397Z,21.90
2022-10-18T17:47:05.218Z,21.90
2022-10-18T17:49:32.003Z,21.80
2022-10-18T17:52:00.276Z,21.80
2022-10-18T17:54:29.843Z,21.70
2022-10-18T17:56:56.493Z,21.70
2022-10-18T17:59:23.340Z,21.70
2022-10-18T18:01:50.287Z,21.60
2022-10-18T18:04:17.040Z,21.60
2022-10-18T18:06:45.400Z,21.60
2022-10-18T18:09:14.864Z,21.50
2022-10-18T18:11:49.544Z,21.50
2022-10-18T18:14:16.581Z,21.50
2022-10-18T18:16:45.622Z,21.50
2022-10-18T18:19:13.813Z,21.50
2022-10-18T18:21:41.339Z,21.40
2022-10-18T18:24:09.969Z,21.40
2022-10-18T18:26:38.190Z,21.40
2022-10-18T18:29:05.293Z,21.30
2022-10-18T18:31:36.975Z,21.20
2022-10-18T18:34:07.319Z,21.10
2022-10-18T18:36:34.041Z,21.10
2022-10-18T18:39:00.778Z,21.00
2022-10-18T18:41:28.729Z,21.00
2022-10-18T18:43:57.736Z,20.90
2022-10-18T18:46:26.269Z,20.90
2022-10-18T18:48:53.242Z,20.90
2022-10-18T18:51:21.334Z,20.80
2022-10-18T18:53:48.576Z,20.80
2022-10-18T18:56:18.092Z,20.80
2022-10-18T18:58:46.096Z,20.70
2022-10-18T19:01:24.665Z,20.70
2022-10-18T19:03:52.973Z,20.50
2022-10-18T19:06:22.659Z,20.60
2022-10-18T19:08:50.312Z,20.50
2022-10-18T19:11:19.645Z,20.50
2022-10-18T19:13:47.081Z,20.50
2022-10-18T19:16:41.203Z,20.40
2022-10-18T19:19:12.495Z,20.30
2022-10-18T19:21:42.903Z,20.30
2022-10-18T19:24:09.813Z,20.20
2022-10-18T19:26:38.612Z,20.20
2022-10-18T19:29:29.788Z,20.20
2022-10-18T19:31:59.552Z,20.10
2022-10-18T19:34:28.924Z,20.00
2022-10-18T19:36:55.770Z,20.00
2022-10-18T19:39:34.154Z,20.00
2022-10-18T19:42:05.944Z,20.00
2022-10-18T19:44:35.788Z,20.00
2022-10-18T19:47:03.401Z,19.90
2022-10-18T19:49:30.478Z,20.00
2022-10-18T19:51:57.636Z,19.90
2022-10-18T19:54:25.013Z,20.00
2022-10-18T19:56:51.767Z,19.90
2022-10-18T19:59:19.001Z,19.80
2022-10-18T20:01:45.925Z,19.80
2022-10-18T20:04:13.379Z,19.70
2022-10-18T20:06:40.430Z,19.70
2022-10-18T20:09:08.073Z,19.70
2022-10-18T20:11:35.075Z,19.70
2022-10-18T20:14:01.984Z,19.70
2022-10-18T20:16:32.228Z,19.80
2022-10-18T20:19:04.195Z,19.70
2022-10-18T20:21:35.436Z,19.80
2022-10-18T20:24:05.683Z,19.80
2022-10-18T20:26:33.141Z,19.70
2022-10-18T20:29:00.069Z,19.70
2022-10-18T20:31:37.218Z,19.60
2022-10-18T20:34:07.512Z,19.50
2022-10-18T20:36:35.351Z,19.40
2022-10-18T20:39:03.436Z,19.40
2022-10-18T20:41:35.713Z,19.40
2022-10-18T20:44:04.772Z,19.40
2022-10-18T20:46:34.028Z,19.30
2022-10-18T20:49:01.464Z,19.40
2022-10-18T20:51:28.731Z,19.30
2022-10-18T20:53:55.642Z,19.30
2022-10-18T20:56:26.393Z,19.30
2022-10-18T20:58:55.461Z,19.20
2022-10-18T21:01:31.068Z,19.20
2022-10-18T21:04:00.666Z,19.20
2022-10-18T21:06:40.121Z,19.20
2022-10-18T21:09:10.345Z,19.10
2022-10-18T21:11:39.658Z,19.20
2022-10-18T21:14:07.766Z,19.10
2022-10-18T21:16:35.563Z,19.10
2022-10-18T21:19:06.257Z,19.00
2022-10-18T21:21:33.492Z,18.90
2022-10-18T21:24:03.890Z,18.90
2022-10-18T21:26:34.225Z,18.80
2022-10-18T21:29:01.086Z,19.10
2022-10-18T21:31:30.875Z,19.30
2022-10-18T21:34:00.071Z,19.20
2022-10-18T21:36:30.071Z,19.30
2022-10-18T21:38:56.814Z,19.20
2022-10-18T21:41:23.657Z,19.20
2022-10-18T21:43:52.983Z,19.20
2022-10-18T21:46:21.590Z,19.20
2022-10-18T21:48:51.389Z,19.10
2022-10-18T21:51:20.624Z,19.10
2022-10-18T21:53:49.312Z,19.20
2022-10-18T21:56:22.323Z,19.20
2022-10-18T21:58:49.329Z,19.10
2022-10-18T22:01:19.195Z,19.00
2022-10-18T22:03:49.448Z,18.90
2022-10-18T22:06:17.634Z,18.90
2022-10-18T22:08:51.524Z,18.90
2022-10-18T22:11:20.577Z,18.90
2022-10-18T22:13:47.384Z,18.80
2022-10-18T22:16:15.985Z,18.80
2022-10-18T22:18:43.447Z,18.80
2022-10-18T22:21:12.195Z,18.70
2022-10-18T22:23:41.818Z,18.70
2022-10-18T22:26:13.309Z,18.80
2022-10-18T22:28:41.818Z,18.70
2022-10-18T22:31:16.057Z,18.60
2022-10-18T22:33:42.866Z,18.50
2022-10-18T22:36:09.627Z,18.50
2022-10-18T22:38:36.559Z,18.50
2022-10-18T22:41:07.930Z,18.60
2022-10-18T22:43:35.295Z,18.60
2022-10-18T22:46:07.744Z,18.50
2022-10-18T22:48:34.836Z,18.40
2022-10-18T22:51:02.282Z,18.40
2022-10-18T22:53:29.547Z,18.30
2022-10-18T22:55:56.285Z,18.30
2022-10-18T22:58:23.570Z,18.30
2022-10-18T23:00:50.322Z,18.20
2022-10-18T23:03:18.684Z,18.20
2022-10-18T23:05:46.691Z,18.20
2022-10-18T23:08:14.728Z,18.10
2022-10-18T23:10:42.761Z,18.10
2022-10-18T23:13:10.650Z,18.20
2022-10-18T23:15:39.095Z,18.10
2022-10-18T23:18:06.297Z,18.20
2022-10-18T23:20:32.995Z,18.20
2022-10-18T23:22:59.716Z,18.10
2022-10-18T23:25:27.231Z,18.00
2022-10-18T23:27:54.052Z,18.00
2022-10-18T23:30:20.825Z,17.90
2022-10-18T23:32:47.518Z,18.00
2022-10-18T23:35:14.271Z,18.00
2022-10-18T23:37:41.018Z,18.20
2022-10-18T23:40:08.564Z,18.20
2022-10-18T23:42:35.289Z,18.20
2022-10-18T23:45:02.015Z,18.30
2022-10-18T23:47:28.758Z,18.40
2022-10-18T23:49:57.196Z,18.30
2022-10-18T23:52:24.834Z,18.30
2022-10-18T23:54:51.548Z,18.40
2022-10-18T23:57:18.346Z,18.40
2022-10-18T23:59:45.036Z,18.40
